Time;durP1;ratioP1;P1;durP2;ratioP2;P2;SDS_P1;SDS_P2;PMS_P1;PMS_P2;Temp;Humidity;BMP_temperature;BMP_pressure;BME280_temperature;BME280_humidity;BME280_pressure;Samples;Min_cycle;Max_cycle;Signal;HPM_P1;HPM_P2
2023/01/27 00:00:19;;;;;;;21.40;2.20;;;;;;;11.36;58.43;102664.03;5042776;28;20030;-72
2023/01/27 00:02:45;;;;;;;16.83;2.20;;;;;;;11.77;57.43;102662.00;5028717;28;20495;-73
2023/01/27 00:05:13;;;;;;;31.20;4.97;;;;;;;11.09;60.47;102671.44;5033997;28;20079;-72
2023/01/27 00:07:44;;;;;;;21.63;3.87;;;;;;;11.94;57.72;102660.53;5031366;28;20528;-73
2023/01/27 00:10:14;;;;;;;14.10;2.47;;;;;;;11.55;58.26;102656.44;5038518;28;20036;-73
2023/01/27 00:15:24;;;;;;;25.27;3.10;;;;;;;11.35;56.93;102659.66;5051884;28;20048;-73
2023/01/27 00:17:49;;;;;;;26.87;2.60;;;;;;;12.25;55.47;102660.91;5050672;28;20033;-73
2023/01/27 00:24:34;;;;;;;23.60;2.33;;;;;;;12.22;55.76;102660.91;5050021;28;20025;-73
2023/01/27 00:26:08;;;;;;;18.97;2.00;;;;;;;12.00;55.14;102650.13;5074196;28;20066;-72
2023/01/27 00:28:35;;;;;;;15.87;2.00;;;;;;;11.97;56.11;102650.09;5062795;28;20029;-73
2023/01/27 00:31:01;;;;;;;24.33;2.07;;;;;;;12.01;53.99;102653.66;5047246;28;20025;-72
2023/01/27 00:33:27;;;;;;;10.37;1.60;;;;;;;12.72;53.25;102647.47;5053213;28;20078;-73
2023/01/27 00:36:04;;;;;;;13.43;1.73;;;;;;;12.85;51.87;102647.59;5051969;28;20032;-72
2023/01/27 00:38:32;;;;;;;14.67;2.20;;;;;;;11.76;54.68;102660.25;5050761;28;20033;-73
2023/01/27 00:43:42;;;;;;;8.07;1.07;;;;;;;11.41;55.83;102661.47;5052618;28;20055;-72
2023/01/27 00:46:07;;;;;;;11.10;1.23;;;;;;;11.33;55.51;102650.91;5051255;28;20029;-73
2023/01/27 00:48:34;;;;;;;11.60;2.40;;;;;;;11.94;54.47;102650.06;5085158;28;20408;-73
2023/01/27 00:50:59;;;;;;;16.17;2.00;;;;;;;11.13;57.12;102653.19;5044935;28;20041;-73
2023/01/27 00:53:25;;;;;;;14.13;2.57;;;;;;;11.53;56.02;102653.81;5037304;28;20064;-73
2023/01/27 00:55:51;;;;;;;8.53;1.93;;;;;;;10.11;59.24;102653.88;5032308;28;20092;-73
2023/01/27 00:58:16;;;;;;;10.93;1.80;;;;;;;11.20;57.73;102654.19;5032237;28;20048;-73
2023/01/27 01:00:41;;;;;;;14.27;2.07;;;;;;;11.54;56.48;102657.34;5062750;28;20027;-73
2023/01/27 01:03:07;;;;;;;18.10;2.30;;;;;;;10.48;57.27;102661.59;5085255;28;20412;-73
2023/01/27 01:05:32;;;;;;;20.30;2.03;;;;;;;11.66;55.10;102660.13;5083975;28;20151;-73
2023/01/27 01:07:57;;;;;;;9.53;2.40;;;;;;;11.69;54.42;102662.78;5084948;28;20057;-73
2023/01/27 01:10:23;;;;;;;9.73;1.80;;;;;;;10.41;57.88;102675.41;5082838;28;20033;-73
2023/01/27 01:12:48;;;;;;;15.20;2.17;;;;;;;11.08;57.16;102661.81;5049729;28;20088;-72
2023/01/27 01:15:14;;;;;;;9.10;2.13;;;;;;;11.03;56.05;102667.84;5048787;28;20032;-73
2023/01/27 01:17:39;;;;;;;15.47;1.70;;;;;;;11.10;55.79;102661.00;5066381;28;20040;-73
2023/01/27 01:20:05;;;;;;;26.73;2.87;;;;;;;10.83;56.61;102669.25;5055262;28;20029;-72
2023/01/27 01:22:30;;;;;;;8.90;2.67;;;;;;;11.58;55.40;102677.47;5030268;28;20036;-73
2023/01/27 01:24:55;;;;;;;14.67;1.90;;;;;;;10.53;57.13;102671.28;5030264;28;20572;-73
2023/01/27 01:27:21;;;;;;;12.93;2.03;;;;;;;9.84;60.59;102680.28;5031877;28;20431;-72
2023/01/27 01:29:47;;;;;;;7.97;2.33;;;;;;;10.10;59.57;102666.91;5044074;28;20040;-72
2023/01/27 01:32:12;;;;;;;14.83;2.47;;;;;;;10.19;59.52;102670.59;5049655;28;20078;-72
2023/01/27 01:34:38;;;;;;;11.77;3.30;;;;;;;10.57;58.31;102666.13;5049934;28;20083;-72
2023/01/27 01:37:03;;;;;;;17.53;2.50;;;;;;;10.26;58.56;102671.63;5051493;28;20485;-73
2023/01/27 01:39:30;;;;;;;8.17;2.10;;;;;;;9.74;59.20;102676.59;5048303;28;20041;-73
2023/01/27 01:41:56;;;;;;;15.13;2.73;;;;;;;10.89;56.89;102674.56;5044950;28;20550;-73
2023/01/27 01:44:27;;;;;;;16.90;2.70;;;;;;;10.37;56.74;102676.19;5045420;28;20556;-72
2023/01/27 01:46:53;;;;;;;16.13;2.20;;;;;;;10.08;59.28;102689.50;5062340;28;20496;-72
2023/01/27 01:49:25;;;;;;;8.80;2.40;;;;;;;11.27;55.54;102697.91;5049991;28;20040;-72
2023/01/27 01:51:56;;;;;;;9.32;3.05;;;;;;;10.56;56.91;102694.00;5043101;28;20065;-72
2023/01/27 01:54:42;;;;;;;19.17;3.03;;;;;;;11.10;55.68;102694.13;5029219;28;20029;-72
2023/01/27 01:57:15;;;;;;;6.00;3.37;;;;;;;10.52;57.33;102689.56;5030736;28;20370;-72
2023/01/27 01:59:43;;;;;;;;;;;;;;;10.80;57.04;102696.22;5030640;28;20037;-72
2023/01/27 02:02:13;;;;;;;12.33;2.83;;;;;;;10.28;57.85;102696.03;5045410;28;19912;-73
2023/01/27 02:04:57;;;;;;;10.30;2.80;;;;;;;10.94;54.43;102688.63;5046550;28;20025;-73
2023/01/27 02:07:35;;;;;;;13.73;3.33;;;;;;;10.27;57.36;102678.56;5045727;28;20045;-72
2023/01/27 02:10:01;;;;;;;9.37;3.20;;;;;;;10.47;56.78;102686.00;5031331;28;20038;-72
2023/01/27 02:12:26;;;;;;;11.30;3.17;;;;;;;10.60;56.82;102689.72;5049237;28;20032;-72
2023/01/27 02:14:52;;;;;;;7.20;3.30;;;;;;;10.84;55.45;102687.56;5049512;28;20123;-72
2023/01/27 02:17:18;;;;;;;8.73;3.00;;;;;;;10.17;55.39;102697.53;5049871;28;20071;-73
2023/01/27 02:20:22;;;;;;;11.10;3.53;;;;;;;10.93;54.68;102693.84;5048696;28;20040;-73
2023/01/27 02:23:14;;;;;;;8.93;3.17;;;;;;;10.26;56.49;102697.75;5034113;28;20037;-72
2023/01/27 02:26:00;;;;;;;8.67;3.23;;;;;;;10.04;57.50;102690.28;5049160;28;20324;-72
2023/01/27 02:28:28;;;;;;;12.10;3.13;;;;;;;10.62;55.10;102693.25;5049956;28;20112;-72
2023/01/27 02:30:53;;;;;;;12.07;3.20;;;;;;;9.94;57.84;102690.06;5048377;28;20044;-72
2023/01/27 02:33:18;;;;;;;7.70;3.10;;;;;;;9.54;60.45;102699.59;5049434;28;20025;-73
2023/01/27 02:36:14;;;;;;;11.87;3.27;;;;;;;9.59;59.09;102698.00;5048432;28;20114;-72
2023/01/27 02:38:52;;;;;;;12.47;3.97;;;;;;;10.26;56.45;102702.06;5047672;28;20032;-72
2023/01/27 02:41:17;;;;;;;10.33;2.87;;;;;;;9.60;58.59;102704.09;5039769;28;20025;-73
2023/01/27 02:43:43;;;;;;;9.53;3.63;;;;;;;10.24;57.02;102688.97;5050072;28;20074;-72
2023/01/27 02:46:08;;;;;;;10.63;4.20;;;;;;;10.02;57.07;102698.09;5048517;28;20017;-72
2023/01/27 02:48:34;;;;;;;9.00;4.07;;;;;;;10.11;56.62;102698.31;5081431;28;20021;-72
2023/01/27 02:50:59;;;;;;;12.37;3.80;;;;;;;10.56;54.64;102700.97;5045805;28;20154;-72
2023/01/27 02:53:24;;;;;;;14.07;4.97;;;;;;;10.20;55.84;102702.81;5047567;28;20037;-72
2023/01/27 02:55:50;;;;;;;9.27;5.27;;;;;;;10.02;57.36;102698.97;5049214;28;20136;-71
2023/01/27 02:58:15;;;;;;;8.83;3.90;;;;;;;9.60;56.74;102705.00;5049859;28;20064;-73
2023/01/27 03:00:42;;;;;;;11.27;4.23;;;;;;;9.71;57.89;102700.00;5042116;28;20017;-72
2023/01/27 03:03:08;;;;;;;11.23;4.30;;;;;;;9.84;57.77;102698.56;5071049;28;20421;-73
2023/01/27 03:05:33;;;;;;;12.63;5.00;;;;;;;9.79;57.59;102705.41;5033593;28;20033;-72
2023/01/27 03:07:58;;;;;;;13.10;4.57;;;;;;;10.16;57.52;102711.44;5051079;28;20404;-72
2023/01/27 03:10:24;;;;;;;13.63;5.00;;;;;;;9.86;58.57;102707.31;5045564;28;20622;-73
2023/01/27 03:12:49;;;;;;;15.23;4.83;;;;;;;9.50;59.37;102703.84;5031556;28;20030;-73
2023/01/27 03:18:16;;;;;;;12.50;5.50;;;;;;;10.12;56.95;102702.66;5042184;28;20127;-72
2023/01/27 03:20:47;;;;;;;20.57;6.57;;;;;;;11.13;54.14;102709.91;5043844;28;20017;-72
2023/01/27 03:23:14;;;;;;;16.20;6.40;;;;;;;10.76;54.81;102710.09;5049056;28;20039;-73
2023/01/27 03:25:44;;;;;;;13.63;6.03;;;;;;;10.40;56.79;102705.00;5048389;28;20083;-73
2023/01/27 03:28:11;;;;;;;12.03;6.20;;;;;;;10.46;55.16;102710.38;5050971;28;20036;-73
2023/01/27 03:30:37;;;;;;;13.93;5.57;;;;;;;9.98;56.10;102722.38;5046444;28;20029;-73
2023/01/27 03:33:04;;;;;;;13.27;6.53;;;;;;;10.95;53.76;102719.19;5048769;28;20025;-72
2023/01/27 03:35:33;;;;;;;24.90;6.87;;;;;;;10.89;54.25;102720.78;5050036;28;20029;-72
2023/01/27 03:46:19;;;;;;;14.87;6.20;;;;;;;9.43;58.08;102735.88;5048496;28;20400;-71
2023/01/27 03:48:53;;;;;;;14.53;6.60;;;;;;;9.68;59.65;102733.88;5049287;28;20036;-72
2023/01/27 03:51:20;;;;;;;14.03;6.83;;;;;;;9.88;58.48;102736.97;5048483;28;20028;-72
2023/01/27 03:53:46;;;;;;;16.47;7.00;;;;;;;9.79;56.27;102731.53;5035923;28;20082;-73
2023/01/27 03:56:13;;;;;;;16.80;7.03;;;;;;;9.72;57.47;102740.06;5028910;28;20017;-72
2023/01/27 03:58:39;;;;;;;12.93;6.87;;;;;;;10.23;56.88;102743.84;5039912;28;20029;-72
2023/01/27 04:01:14;;;;;;;16.67;7.47;;;;;;;10.06;57.31;102756.53;5048926;28;20059;-72
2023/01/27 04:09:28;;;;;;;16.00;7.73;;;;;;;10.19;55.67;102748.09;5050421;28;20067;-72
2023/01/27 04:11:56;;;;;;;16.73;8.37;;;;;;;9.67;57.61;102747.75;5048194;28;20448;-73
2023/01/27 04:14:23;;;;;;;15.70;7.87;;;;;;;10.15;55.78;102767.16;5045444;28;20045;-73
2023/01/27 04:16:50;;;;;;;20.63;8.43;;;;;;;10.58;54.29;102768.16;5048372;28;20481;-72
2023/01/27 04:19:15;;;;;;;19.90;8.57;;;;;;;9.37;58.35;102768.78;5048617;28;20095;-73
2023/01/27 04:21:41;;;;;;;22.47;9.03;;;;;;;10.31;56.00;102769.28;5046754;28;20025;-73
2023/01/27 04:24:07;;;;;;;20.53;8.67;;;;;;;9.82;55.08;102778.59;5033137;28;20057;-73
2023/01/27 04:26:34;;;;;;;16.57;8.60;;;;;;;10.32;55.29;102781.50;5040270;28;20020;-73
2023/01/27 04:29:03;;;;;;;16.70;8.67;;;;;;;10.49;54.55;102783.63;5047250;28;20035;-73
2023/01/27 04:31:29;;;;;;;17.43;8.90;;;;;;;10.10;54.61;102779.28;5040479;28;20021;-73
2023/01/27 04:33:54;;;;;;;17.63;8.47;;;;;;;9.82;55.64;102783.81;5030230;28;20079;-73
2023/01/27 04:36:20;;;;;;;16.53;8.37;;;;;;;9.32;56.63;102787.81;5029314;28;20029;-73
2023/01/27 04:38:45;;;;;;;16.63;8.03;;;;;;;9.69;55.29;102782.66;5064426;28;20452;-72
2023/01/27 04:41:14;;;;;;;15.80;7.87;;;;;;;9.37;56.90;102784.44;5047330;28;20025;-73
2023/01/27 04:43:39;;;;;;;13.03;7.47;;;;;;;9.82;54.13;102794.28;5047186;28;20473;-73
2023/01/27 04:46:05;;;;;;;14.40;7.37;;;;;;;10.54;53.65;102789.84;5048584;28;20035;-73
2023/01/27 04:48:30;;;;;;;15.90;6.40;;;;;;;9.72;54.13;102792.28;5049682;28;20075;-73
2023/01/27 04:50:55;;;;;;;11.63;6.33;;;;;;;8.86;56.29;102791.78;5050090;28;20120;-72
2023/01/27 04:53:21;;;;;;;10.43;5.90;;;;;;;9.66;54.87;102798.25;5079961;28;20031;-73
2023/01/27 04:55:48;;;;;;;11.93;6.40;;;;;;;10.22;53.17;102795.22;5043265;28;20091;-73
2023/01/27 04:58:16;;;;;;;9.23;5.57;;;;;;;10.19;53.22;102795.13;5053250;28;20032;-73
2023/01/27 05:00:42;;;;;;;8.63;5.40;;;;;;;9.84;54.15;102797.81;5052295;28;20049;-73
2023/01/27 05:03:09;;;;;;;8.50;4.90;;;;;;;10.59;51.46;102801.31;5050395;28;20025;-73
2023/01/27 05:05:35;;;;;;;9.77;4.57;;;;;;;9.41;53.29;102791.50;5051786;28;20043;-73
2023/01/27 05:08:09;;;;;;;8.40;5.50;;;;;;;10.37;52.16;102793.84;5048532;28;20057;-73
2023/01/27 05:10:34;;;;;;;9.77;4.80;;;;;;;9.84;51.94;102792.59;5031516;28;20032;-73
2023/01/27 05:13:01;;;;;;;5.67;3.80;;;;;;;10.28;51.24;102805.81;5046117;28;20033;-73
2023/01/27 05:15:27;;;;;;;7.17;4.10;;;;;;;9.88;52.85;102812.72;5033163;28;20033;-73
2023/01/27 05:17:53;;;;;;;4.37;3.37;;;;;;;9.74;53.15;102803.66;5031510;28;20035;-73
2023/01/27 05:20:18;;;;;;;5.07;3.23;;;;;;;10.23;51.74;102802.19;5039372;28;20426;-73
2023/01/27 05:22:44;;;;;;;7.90;3.63;;;;;;;11.12;49.38;102802.34;5050543;28;20032;-73
2023/01/27 05:25:09;;;;;;;8.43;3.60;;;;;;;10.77;49.79;102807.75;5050950;28;20094;-73
2023/01/27 05:27:34;;;;;;;5.93;3.57;;;;;;;9.95;51.30;102806.78;5048895;28;20118;-73
2023/01/27 05:30:00;;;;;;;4.43;2.93;;;;;;;9.43;52.07;102811.59;5045891;28;20087;-72
2023/01/27 05:32:25;;;;;;;5.93;2.77;;;;;;;9.70;51.13;102807.03;5051339;28;20494;-73
2023/01/27 05:34:51;;;;;;;6.83;3.37;;;;;;;10.39;50.14;102813.06;5050948;28;20041;-72
2023/01/27 05:37:16;;;;;;;4.73;3.23;;;;;;;10.58;49.96;102812.59;5051953;28;20025;-72
2023/01/27 05:39:42;;;;;;;4.60;3.40;;;;;;;10.98;48.94;102810.81;5050622;28;20029;-72
2023/01/27 05:42:07;;;;;;;4.77;3.43;;;;;;;10.67;50.48;102815.44;5045938;28;20105;-72
2023/01/27 05:44:32;;;;;;;6.00;3.40;;;;;;;10.54;49.72;102829.09;5047315;28;20037;-73
2023/01/27 05:46:58;;;;;;;6.03;2.87;;;;;;;10.62;49.08;102827.53;5048633;28;20029;-73
2023/01/27 05:49:23;;;;;;;5.23;3.27;;;;;;;10.05;49.90;102822.69;5033294;28;20030;-73
2023/01/27 05:51:48;;;;;;;4.07;3.37;;;;;;;10.24;50.79;102829.25;5030798;28;20056;-72
2023/01/27 05:54:14;;;;;;;5.67;3.10;;;;;;;10.34;49.31;102821.69;5048079;28;20094;-72
2023/01/27 05:56:39;;;;;;;5.90;3.23;;;;;;;10.34;50.21;102821.69;5035674;28;20025;-72
2023/01/27 05:59:05;;;;;;;8.43;3.40;;;;;;;10.25;50.67;102826.66;5050495;28;20040;-73
2023/01/27 06:01:33;;;;;;;5.53;3.53;;;;;;;9.53;50.78;102828.38;5049462;28;20029;-73
2023/01/27 06:03:59;;;;;;;9.00;3.20;;;;;;;10.14;50.20;102828.16;5031030;28;20025;-73
2023/01/27 06:06:27;;;;;;;4.43;2.87;;;;;;;9.43;51.76;102826.38;5030006;28;20131;-72
2023/01/27 06:08:52;;;;;;;4.27;2.60;;;;;;;9.10;52.22;102829.84;5030872;28;20056;-72
2023/01/27 06:11:21;;;;;;;8.27;3.50;;;;;;;10.22;50.37;102831.81;5031385;28;20080;-72
2023/01/27 06:13:47;;;;;;;3.93;2.57;;;;;;;9.67;50.36;102832.22;5041077;28;20058;-72
2023/01/27 06:16:16;;;;;;;3.80;3.10;;;;;;;10.68;49.66;102837.22;5049764;28;20040;-73
2023/01/27 06:18:42;;;;;;;6.23;3.03;;;;;;;8.94;51.67;102841.53;5051249;28;20044;-74
2023/01/27 06:21:09;;;;;;;5.63;3.60;;;;;;;9.34;52.38;102827.91;5051266;28;20025;-72
2023/01/27 06:23:35;;;;;;;5.73;3.20;;;;;;;9.84;50.28;102835.25;5044806;28;20106;-72
2023/01/27 06:26:08;;;;;;;11.90;3.50;;;;;;;10.38;49.20;102837.44;5047068;28;20028;-73
2023/01/27 06:28:33;;;;;;;12.40;3.85;;;;;;;10.74;48.14;102841.69;5051010;28;20025;-73
2023/01/27 06:31:11;;;;;;;5.60;3.77;;;;;;;10.69;49.04;102839.00;5050483;28;20390;-72
2023/01/27 06:33:37;;;;;;;4.43;3.47;;;;;;;9.58;50.43;102832.00;5049708;28;20037;-72
2023/01/27 06:36:05;;;;;;;3.50;2.87;;;;;;;9.10;51.92;102848.09;5047792;28;20091;-72
2023/01/27 06:38:31;;;;;;;3.40;2.90;;;;;;;9.41;51.08;102839.38;5045412;28;20060;-72
2023/01/27 06:40:56;;;;;;;5.10;3.00;;;;;;;9.79;49.96;102841.22;5049360;28;20024;-72
2023/01/27 06:43:22;;;;;;;3.83;2.97;;;;;;;10.31;48.77;102842.47;5049885;28;20383;-72
2023/01/27 06:45:51;;;;;;;5.03;3.43;;;;;;;9.82;49.59;102852.63;5049912;28;20032;-72
2023/01/27 06:48:16;;;;;;;4.33;2.97;;;;;;;10.16;49.08;102853.44;5049028;28;20025;-72
2023/01/27 06:50:41;;;;;;;4.63;2.77;;;;;;;10.41;48.41;102853.19;5050059;28;20350;-72
2023/01/27 06:53:07;;;;;;;3.40;2.50;;;;;;;9.53;49.78;102858.81;5049026;28;20107;-72
2023/01/27 06:55:40;;;;;;;2.70;2.50;;;;;;;9.83;49.22;102856.13;5043580;28;20029;-73
2023/01/27 06:58:08;;;;;;;3.58;2.50;;;;;;;10.33;48.06;102861.69;5032347;28;20039;-73
2023/01/27 07:00:35;;;;;;;2.53;2.00;;;;;;;8.31;50.76;102870.06;5056846;28;20028;-73
2023/01/27 07:03:00;;;;;;;3.27;2.27;;;;;;;9.54;48.17;102861.47;5069245;28;20143;-72
2023/01/27 07:05:26;;;;;;;3.07;2.30;;;;;;;8.83;49.74;102869.91;5032399;28;20130;-72
2023/01/27 07:07:51;;;;;;;2.70;2.13;;;;;;;9.83;48.66;102862.22;5041081;28;20076;-72
2023/01/27 07:10:17;;;;;;;2.73;2.50;;;;;;;9.99;48.09;102862.63;5047988;28;20473;-72
2023/01/27 07:12:42;;;;;;;5.20;2.40;;;;;;;9.50;48.93;102864.84;5045912;28;20033;-73
2023/01/27 07:15:09;;;;;;;2.37;2.17;;;;;;;9.86;47.89;102866.63;5060335;28;20078;-73
2023/01/27 07:17:35;;;;;;;7.97;2.40;;;;;;;9.91;47.41;102872.00;5048220;28;20029;-73
2023/01/27 07:20:02;;;;;;;3.47;2.07;;;;;;;9.84;47.26;102868.34;5046062;28;20479;-73
2023/01/27 07:22:27;;;;;;;4.90;2.00;;;;;;;9.76;48.05;102862.91;5049288;28;20024;-73
2023/01/27 07:24:54;;;;;;;3.67;2.23;;;;;;;10.47;46.51;102875.13;5044496;28;20029;-74
2023/01/27 07:27:21;;;;;;;3.20;2.40;;;;;;;10.33;46.59;102880.00;5029407;28;20038;-73
2023/01/27 07:29:46;;;;;;;2.50;2.30;;;;;;;11.07;45.37;102872.03;5030725;28;20037;-73
2023/01/27 07:32:14;;;;;;;6.30;3.33;;;;;;;10.89;45.48;102868.19;5028104;28;20034;-74
2023/01/27 07:34:40;;;;;;;3.03;2.20;;;;;;;9.64;47.17;102884.38;5034654;28;20033;-74
2023/01/27 07:37:05;;;;;;;7.83;2.90;;;;;;;10.37;46.90;102872.25;5040919;28;20082;-73
2023/01/27 07:39:32;;;;;;;3.23;2.60;;;;;;;9.90;47.39;102876.31;5038221;28;20044;-73
2023/01/27 07:42:00;;;;;;;3.70;2.77;;;;;;;10.15;46.47;102879.53;5037397;28;20163;-73
2023/01/27 07:44:25;;;;;;;2.67;2.00;;;;;;;10.16;46.62;102895.25;5057174;28;20069;-72
2023/01/27 07:46:50;;;;;;;5.73;2.50;;;;;;;9.16;49.24;102896.13;5047524;28;20400;-74
2023/01/27 07:49:16;;;;;;;5.77;3.30;;;;;;;9.39;48.51;102908.03;5048263;28;20063;-74
2023/01/27 07:51:41;;;;;;;5.93;2.70;;;;;;;9.26;48.40;102910.31;5043113;28;20098;-74
2023/01/27 07:54:07;;;;;;;3.20;2.40;;;;;;;10.42;46.28;102907.25;5050189;28;20024;-74
2023/01/27 07:56:35;;;;;;;5.00;2.50;;;;;;;9.40;47.71;102917.66;5031156;28;20128;-74
2023/01/27 07:59:00;;;;;;;6.63;2.80;;;;;;;9.22;47.60;102921.50;5046538;28;20033;-74
2023/01/27 08:01:26;;;;;;;3.63;2.60;;;;;;;9.47;48.48;102922.19;5047494;28;20094;-73
2023/01/27 08:03:51;;;;;;;2.67;2.20;;;;;;;9.57;46.92;102913.75;5044651;28;20040;-74
2023/01/27 08:06:16;;;;;;;5.60;2.50;;;;;;;9.29;47.28;102918.22;5047989;28;20025;-73
2023/01/27 08:08:42;;;;;;;5.43;2.50;;;;;;;8.94;48.85;102931.13;5046805;28;20025;-74
2023/01/27 08:11:10;;;;;;;5.23;2.57;;;;;;;10.42;45.80;102917.69;5038464;28;20547;-73
2023/01/27 08:13:36;;;;;;;4.00;2.37;;;;;;;10.99;44.82;102926.81;5027646;28;20029;-74
2023/01/27 08:16:04;;;;;;;2.97;2.17;;;;;;;10.09;45.54;102923.84;5042944;28;20059;-73
2023/01/27 08:18:32;;;;;;;7.93;2.53;;;;;;;10.21;46.02;102924.13;5037735;28;20044;-73
2023/01/27 08:21:03;;;;;;;6.10;2.33;;;;;;;10.84;45.26;102927.41;5034564;28;20021;-73
2023/01/27 08:23:30;;;;;;;5.70;2.43;;;;;;;10.64;45.33;102934.78;5048672;28;20025;-73
2023/01/27 08:25:58;;;;;;;5.73;2.77;;;;;;;10.26;46.77;102934.69;5051587;28;20032;-73
2023/01/27 08:28:25;;;;;;;4.20;2.20;;;;;;;11.54;44.20;102927.09;5050935;28;20094;-74
2023/01/27 08:30:51;;;;;;;6.67;2.40;;;;;;;11.18;44.94;102943.81;5047518;28;21566;-74
2023/01/27 08:33:21;;;;;;;4.03;2.40;;;;;;;10.63;45.99;102939.13;5048254;28;20029;-73
2023/01/27 08:35:48;;;;;;;3.60;2.60;;;;;;;9.70;47.29;102940.22;5048720;28;20116;-74
2023/01/27 08:38:15;;;;;;;3.77;2.50;;;;;;;10.18;46.97;102924.06;5059581;28;20017;-73
2023/01/27 08:40:41;;;;;;;3.30;1.77;;;;;;;9.82;47.04;102936.22;5047887;28;20037;-74
2023/01/27 08:43:07;;;;;;;4.40;2.67;;;;;;;10.84;45.86;102940.47;5040630;28;20477;-73
2023/01/27 08:45:33;;;;;;;6.17;2.30;;;;;;;10.46;46.06;102936.09;5043360;28;20041;-73
2023/01/27 08:47:58;;;;;;;4.30;2.37;;;;;;;10.09;46.49;102944.75;5035998;28;20112;-73
2023/01/27 08:50:24;;;;;;;5.23;2.63;;;;;;;10.39;45.89;102943.78;5050380;28;20036;-73
2023/01/27 08:52:49;;;;;;;5.47;2.50;;;;;;;10.64;45.19;102946.09;5049557;28;20503;-73
2023/01/27 08:55:14;;;;;;;2.63;2.43;;;;;;;10.17;45.80;102935.38;5050260;28;20060;-73
2023/01/27 08:57:40;;;;;;;5.03;2.37;;;;;;;10.73;45.29;102939.31;5048678;28;20388;-74
2023/01/27 09:00:07;;;;;;;4.53;2.47;;;;;;;10.97;45.01;102950.34;5048732;28;20029;-74
2023/01/27 09:02:33;;;;;;;2.80;1.83;;;;;;;11.02;44.15;102946.09;5050450;28;20021;-73
2023/01/27 09:04:59;;;;;;;2.60;2.00;;;;;;;11.32;43.10;102942.38;5052128;28;20166;-74
2023/01/27 09:07:24;;;;;;;3.07;2.17;;;;;;;10.98;43.72;102941.66;5051614;28;20083;-74
2023/01/27 09:09:49;;;;;;;6.23;2.40;;;;;;;10.61;45.04;102946.03;5049752;28;20037;-73
2023/01/27 09:12:15;;;;;;;4.13;2.20;;;;;;;10.37;45.68;102945.44;5048636;28;20088;-73
2023/01/27 09:14:41;;;;;;;5.43;1.80;;;;;;;10.03;46.32;102945.47;5051254;28;20029;-73
2023/01/27 09:17:06;;;;;;;4.70;2.57;;;;;;;9.94;46.52;102943.47;5050609;28;20017;-74
2023/01/27 09:19:32;;;;;;;4.63;2.03;;;;;;;10.15;46.18;102950.09;5081897;28;20029;-73
2023/01/27 09:21:57;;;;;;;3.67;1.90;;;;;;;10.74;44.99;102951.56;5051515;28;20029;-74
2023/01/27 09:24:23;;;;;;;4.63;2.10;;;;;;;10.18;44.63;102951.06;5056513;28;20103;-74
2023/01/27 09:26:48;;;;;;;4.50;1.97;;;;;;;9.73;46.44;102948.16;5054081;28;20036;-74
2023/01/27 09:29:14;;;;;;;2.87;1.83;;;;;;;10.45;45.37;102944.78;5062846;28;20029;-73
2023/01/27 09:31:39;;;;;;;2.70;1.43;;;;;;;9.47;46.73;102964.84;5043166;28;20074;-73
2023/01/27 09:34:05;;;;;;;6.80;2.00;;;;;;;9.40;47.50;102962.03;5042329;28;20024;-73
2023/01/27 09:36:36;;;;;;;1.90;1.67;;;;;;;9.87;47.21;102954.63;5044880;28;20037;-74
2023/01/27 09:39:05;;;;;;;2.87;1.70;;;;;;;9.45;48.13;102960.41;5041007;28;20029;-73
2023/01/27 09:41:49;;;;;;;4.10;1.80;;;;;;;9.74;47.87;102963.84;5081805;28;20366;-73
2023/01/27 09:44:42;;;;;;;2.87;1.50;;;;;;;9.11;49.70;102954.22;5049696;28;20036;-73
2023/01/27 09:47:30;;;;;;;2.83;1.50;;;;;;;9.61;48.88;102957.38;5051574;28;20106;-73
2023/01/27 09:50:14;;;;;;;4.10;1.60;;;;;;;9.26;49.56;102959.91;5065011;28;20022;-73
2023/01/27 09:52:45;;;;;;;4.10;1.33;;;;;;;8.31;51.04;102953.44;5062129;28;20083;-73
2023/01/27 09:55:13;;;;;;;2.67;1.60;;;;;;;8.92;50.17;102958.00;5051132;28;20032;-74
2023/01/27 09:58:03;;;;;;;2.93;1.57;;;;;;;9.30;50.08;102956.53;5043949;28;20044;-73
2023/01/27 10:00:41;;;;;;;3.73;2.13;;;;;;;9.58;48.74;102956.44;5032239;28;20060;-73
2023/01/27 10:03:24;;;;;;;3.77;2.10;;;;;;;9.64;48.49;102954.88;5045412;28;20112;-74
2023/01/27 10:05:58;;;;;;;2.33;1.80;;;;;;;9.56;48.82;102953.78;5050476;28;20083;-73
2023/01/27 10:08:47;;;;;;;3.13;2.43;;;;;;;9.79;48.21;102943.06;5058786;28;20049;-74
2023/01/27 10:11:27;;;;;;;1.57;1.47;;;;;;;10.42;47.41;102944.72;5039582;28;20033;-73
2023/01/27 10:14:12;;;;;;;5.67;2.00;;;;;;;11.21;45.75;102954.34;5050209;28;20032;-74
2023/01/27 10:16:53;;;;;;;4.43;2.00;;;;;;;12.37;42.99;102946.91;5049733;28;20419;-74
2023/01/27 10:19:43;;;;;;;9.10;2.00;;;;;;;12.30;42.76;102942.44;5039205;28;20033;-73
2023/01/27 10:22:15;;;;;;;3.03;1.60;;;;;;;12.38;42.61;102950.44;5050679;28;20362;-74
2023/01/27 10:25:18;;;;;;;2.30;1.20;;;;;;;12.00;42.70;102943.66;5052209;28;20397;-74
2023/01/27 10:27:50;;;;;;;5.40;1.40;;;;;;;11.42;43.14;102958.28;5049279;28;20036;-73
2023/01/27 10:30:28;;;;;;;6.95;1.50;;;;;;;11.98;42.75;102949.75;5049854;28;20531;-73
2023/01/27 10:33:10;;;;;;;3.27;1.60;;;;;;;11.55;43.09;102955.03;5049862;28;20641;-74
2023/01/27 10:36:10;;;;;;;2.03;1.30;;;;;;;12.29;42.17;102951.16;5049685;28;20021;-74
2023/01/27 10:38:42;;;;;;;2.40;1.23;;;;;;;11.98;42.35;102950.63;5041628;28;20034;-73
2023/01/27 10:41:46;;;;;;;1.37;1.20;;;;;;;11.22;43.61;102955.22;5027783;28;20480;-74
2023/01/27 10:44:33;;;;;;;2.77;1.30;;;;;;;11.69;43.96;102948.34;5049207;28;20045;-75
2023/01/27 10:47:10;;;;;;;2.27;1.37;;;;;;;12.76;41.80;102947.50;5049498;28;20032;-74
2023/01/27 10:49:50;;;;;;;2.37;1.00;;;;;;;11.46;42.95;102954.88;5029768;28;20033;-74
2023/01/27 10:52:20;;;;;;;1.70;1.30;;;;;;;12.48;41.92;102951.47;5044088;28;20055;-73
2023/01/27 10:55:04;;;;;;;1.97;1.10;;;;;;;12.18;43.08;102943.09;5083301;28;20032;-73
2023/01/27 10:57:37;;;;;;;0.93;0.93;;;;;;;11.91;42.61;102951.34;5049878;28;20029;-74
2023/01/27 11:00:21;;;;;;;3.00;1.30;;;;;;;12.07;42.72;102964.75;5047550;28;20082;-74
2023/01/27 11:02:59;;;;;;;1.10;0.90;;;;;;;11.09;45.03;102957.59;5063083;28;20030;-74
2023/01/27 11:05:33;;;;;;;2.20;1.60;;;;;;;10.33;46.63;102953.19;5063028;28;20381;-74
2023/01/27 11:08:04;;;;;;;4.13;1.00;;;;;;;11.39;44.56;102953.84;5049224;28;20041;-74
2023/01/27 11:10:37;;;;;;;2.00;1.30;;;;;;;10.66;45.67;102953.97;5047863;28;20029;-73
2023/01/27 11:13:04;;;;;;;3.40;1.20;;;;;;;11.03;45.21;102945.25;5083559;28;20039;-73
2023/01/27 11:15:33;;;;;;;3.27;1.00;;;;;;;11.65;44.20;102940.38;5050198;28;20108;-74
2023/01/27 11:18:27;;;;;;;4.23;1.37;;;;;;;11.56;45.02;102940.22;5033669;28;20025;-74
2023/01/27 11:21:04;;;;;;;1.63;0.93;;;;;;;10.76;45.73;102947.25;5047966;28;20024;-73
2023/01/27 11:23:34;;;;;;;4.13;1.43;;;;;;;11.01;46.32;102940.84;5048760;28;20021;-73
2023/01/27 11:26:14;;;;;;;2.87;0.90;;;;;;;10.82;46.34;102940.41;5051134;28;20056;-73
2023/01/27 11:28:49;;;;;;;1.70;0.90;;;;;;;11.28;45.07;102932.69;5049417;28;20040;-74
2023/01/27 11:31:28;;;;;;;1.13;1.10;;;;;;;11.58;45.37;102933.25;5030366;28;20038;-73
2023/01/27 11:34:03;;;;;;;3.80;1.57;;;;;;;11.29;45.24;102931.84;5031202;28;20033;-74
2023/01/27 11:36:29;;;;;;;4.00;1.30;;;;;;;11.00;45.92;102934.72;5043310;28;20029;-73
2023/01/27 11:39:00;;;;;;;1.40;0.90;;;;;;;11.37;44.94;102935.50;5029631;28;20448;-74
2023/01/27 11:41:26;;;;;;;2.80;1.10;;;;;;;11.43;44.92;102939.97;5050652;28;20480;-73
2023/01/27 11:43:51;;;;;;;2.20;1.13;;;;;;;12.19;44.31;102925.66;5048699;28;20032;-74
2023/01/27 11:46:21;;;;;;;4.20;2.13;;;;;;;12.14;43.34;102919.44;5049682;28;20025;-71
2023/01/27 11:48:52;;;;;;;3.50;1.37;;;;;;;12.07;44.31;102928.94;5051077;28;20079;-74
2023/01/27 11:51:24;;;;;;;1.53;1.43;;;;;;;12.21;43.41;102923.91;5046295;28;20053;-73
2023/01/27 11:53:56;;;;;;;1.87;1.30;;;;;;;12.03;44.00;102917.53;5083050;28;20083;-73
2023/01/27 11:56:23;;;;;;;;;;;;;;;11.48;44.92;102922.59;5048260;28;20028;-73
2023/01/27 11:59:04;;;;;;;4.10;1.40;;;;;;;11.22;44.95;102931.66;5028300;28;19963;-74
2023/01/27 12:02:21;;;;;;;2.87;1.37;;;;;;;11.93;44.99;102920.81;5029269;28;20037;-74